createdAt,value
2022-10-29T00:01:16.724Z,101926.00
2022-10-29T00:03:45.014Z,101910.00
2022-10-29T00:06:13.716Z,101930.00
2022-10-29T00:08:43.099Z,101921.00
2022-10-29T00:11:14.570Z,101921.00
2022-10-29T00:13:44.971Z,101909.00
2022-10-29T00:16:16.373Z,101920.00
2022-10-29T00:18:45.247Z,101911.00
2022-10-29T00:21:16.658Z,101884.00
2022-10-29T00:23:45.145Z,101899.00
2022-10-29T00:26:14.766Z,101935.00
2022-10-29T00:28:44.815Z,101938.00
2022-10-29T00:31:16.091Z,101944.00
2022-10-29T00:33:44.611Z,101930.00
2022-10-29T00:36:15.564Z,101925.00
2022-10-29T00:38:44.235Z,101931.00
2022-10-29T00:41:15.298Z,101887.00
2022-10-29T00:43:50.085Z,101900.00
2022-10-29T00:46:23.822Z,101908.00
2022-10-29T00:48:55.532Z,101896.00
2022-10-29T00:51:24.521Z,101890.00
2022-10-29T00:53:57.438Z,101901.00
2022-10-29T00:56:27.761Z,101889.00
2022-10-29T00:58:57.376Z,101899.00
2022-10-29T01:01:25.823Z,101898.00
2022-10-29T01:03:55.493Z,101908.00
2022-10-29T01:06:26.074Z,101903.00
2022-10-29T01:08:54.747Z,101890.00
2022-10-29T01:11:39.589Z,101895.00
2022-10-29T01:14:25.272Z,101920.00
2022-10-29T01:17:01.993Z,101922.00
2022-10-29T01:20:09.532Z,101907.00
2022-10-29T01:22:44.750Z,101895.00
2022-10-29T01:25:44.032Z,101914.00
2022-10-29T01:28:33.609Z,101912.00
2022-10-29T01:31:26.871Z,101904.00
2022-10-29T01:34:04.812Z,101907.00
2022-10-29T01:36:40.529Z,101892.00
2022-10-29T01:39:19.072Z,101885.00
2022-10-29T01:41:53.894Z,101883.00
2022-10-29T01:44:35.479Z,101875.00
2022-10-29T01:47:07.299Z,101875.00
2022-10-29T01:49:39.866Z,101869.00
2022-10-29T01:52:12.777Z,101842.00
2022-10-29T01:54:42.722Z,101857.00
2022-10-29T01:57:32.105Z,101852.00
2022-10-29T02:00:06.845Z,101862.00
2022-10-29T02:02:59.474Z,101854.00
2022-10-29T02:05:35.332Z,101842.00
2022-10-29T02:08:19.620Z,101848.00
2022-10-29T02:10:55.058Z,101854.00
2022-10-29T02:13:29.308Z,101831.00
2022-10-29T02:15:59.832Z,101840.00
2022-10-29T02:18:29.698Z,101835.00
2022-10-29T02:20:58.352Z,101840.00
2022-10-29T02:23:26.563Z,101841.00
2022-10-29T02:25:54.810Z,101821.00
2022-10-29T02:28:23.030Z,101821.00
2022-10-29T02:30:52.356Z,101817.00
2022-10-29T02:33:21.553Z,101778.00
2022-10-29T02:35:51.268Z,101818.00
2022-10-29T02:38:19.439Z,101819.00
2022-10-29T02:40:47.653Z,101823.00
2022-10-29T02:43:15.866Z,101810.00
2022-10-29T02:45:44.100Z,101838.00
2022-10-29T02:48:12.326Z,101832.00
2022-10-29T02:50:40.545Z,101814.00
2022-10-29T02:53:10.111Z,101829.00
2022-10-29T02:55:38.335Z,101834.00
2022-10-29T02:58:06.533Z,101824.00
2022-10-29T03:00:35.056Z,101832.00
2022-10-29T03:03:03.343Z,101836.00
2022-10-29T03:05:31.577Z,101840.00
2022-10-29T03:07:59.752Z,101832.00
2022-10-29T03:10:29.342Z,101823.00
2022-10-29T03:13:00.138Z,101818.00
2022-10-29T03:15:28.590Z,101814.00
2022-10-29T03:17:56.921Z,101806.00
2022-10-29T03:20:25.445Z,101822.00
2022-10-29T03:22:53.626Z,101786.00
2022-10-29T03:25:21.864Z,101827.00
2022-10-29T03:27:51.389Z,101817.00
2022-10-29T03:30:19.635Z,101803.00
2022-10-29T03:32:49.387Z,101823.00
2022-10-29T03:35:18.162Z,101817.00
2022-10-29T03:37:46.371Z,101802.00
2022-10-29T03:40:14.582Z,101819.00
2022-10-29T03:42:42.746Z,101825.00
2022-10-29T03:45:12.907Z,101844.00
2022-10-29T03:47:41.255Z,101827.00
2022-10-29T03:50:10.664Z,101816.00
2022-10-29T03:52:39.061Z,101807.00
2022-10-29T03:55:08.749Z,101818.00
2022-10-29T03:57:37.026Z,101814.00
2022-10-29T04:00:06.246Z,101809.00
2022-10-29T04:02:35.969Z,101802.00
2022-10-29T04:05:04.624Z,101800.00
2022-10-29T04:07:32.945Z,101810.00
2022-10-29T04:10:01.169Z,101795.00
2022-10-29T04:12:29.366Z,101820.00
2022-10-29T04:14:57.612Z,101813.00
2022-10-29T04:17:25.946Z,101814.00
2022-10-29T04:19:55.633Z,101829.00
2022-10-29T04:30:48.733Z,101821.00
2022-10-29T04:33:17.122Z,101824.00
2022-10-29T04:35:52.801Z,101819.00
2022-10-29T04:38:21.364Z,101816.00
2022-10-29T04:40:49.819Z,101831.00
2022-10-29T04:43:18.789Z,101814.00
2022-10-29T04:45:53.033Z,101818.00
2022-10-29T04:48:22.183Z,101833.00
2022-10-29T04:50:52.053Z,101823.00
2022-10-29T04:53:20.519Z,101830.00
2022-10-29T04:55:49.861Z,101820.00
2022-10-29T04:58:20.294Z,101838.00
2022-10-29T05:00:48.531Z,101841.00
2022-10-29T05:03:16.854Z,101816.00
2022-10-29T05:05:45.001Z,101825.00
2022-10-29T05:08:15.376Z,101823.00
2022-10-29T05:10:43.566Z,101829.00
2022-10-29T05:13:13.593Z,101829.00
2022-10-29T05:15:42.378Z,101838.00
2022-10-29T05:18:11.678Z,101837.00
2022-10-29T05:20:39.904Z,101807.00
2022-10-29T05:23:11.298Z,101825.00
2022-10-29T05:25:42.277Z,101828.00
2022-10-29T05:28:14.478Z,101803.00
2022-10-29T05:30:43.931Z,101816.00
2022-10-29T05:33:13.979Z,101813.00
2022-10-29T05:35:42.337Z,101818.00
2022-10-29T05:38:12.150Z,101815.00
2022-10-29T05:40:42.872Z,101814.00
2022-10-29T05:43:11.079Z,101808.00
2022-10-29T05:45:39.317Z,101811.00
2022-10-29T05:48:08.343Z,101806.00
2022-10-29T05:50:36.829Z,101776.00
2022-10-29T05:53:07.096Z,101792.00
2022-10-29T05:55:37.021Z,101793.00
2022-10-29T05:58:08.691Z,101796.00
2022-10-29T06:00:39.856Z,101783.00
2022-10-29T06:03:14.216Z,101785.00
2022-10-29T06:05:42.592Z,101770.00
2022-10-29T06:08:10.979Z,101792.00
2022-10-29T06:10:39.335Z,101782.00
2022-10-29T06:13:13.416Z,101787.00
2022-10-29T06:15:41.695Z,101792.00
2022-10-29T06:18:10.399Z,101782.00
2022-10-29T06:20:39.700Z,101784.00
2022-10-29T06:23:08.306Z,101765.00
2022-10-29T06:25:36.458Z,101759.00
2022-10-29T06:28:06.813Z,101787.00
2022-10-29T06:30:37.730Z,101791.00
2022-10-29T06:33:06.772Z,101775.00
2022-10-29T06:38:11.961Z,101787.00
2022-10-29T06:40:40.775Z,101769.00
2022-10-29T06:43:11.890Z,101788.00
2022-10-29T06:45:41.483Z,101791.00
2022-10-29T06:48:10.217Z,101783.00
2022-10-29T06:50:38.598Z,101759.00
2022-10-29T06:53:09.026Z,101782.00
2022-10-29T06:55:37.235Z,101786.00
2022-10-29T06:58:08.159Z,101762.00
2022-10-29T07:00:36.600Z,101779.00
2022-10-29T07:03:07.335Z,101792.00
2022-10-29T07:05:36.299Z,101773.00
2022-10-29T07:08:04.619Z,101781.00
2022-10-29T07:10:34.875Z,101802.00
2022-10-29T07:13:03.436Z,101801.00
2022-10-29T07:15:32.498Z,101803.00
2022-10-29T07:18:02.897Z,101794.00
2022-10-29T07:20:35.085Z,101802.00
2022-10-29T07:23:03.420Z,101802.00
2022-10-29T07:25:33.178Z,101819.00
2022-10-29T07:28:05.561Z,101796.00
2022-10-29T07:30:34.199Z,101812.00
2022-10-29T07:33:02.378Z,101807.00
2022-10-29T07:35:32.319Z,101810.00
2022-10-29T07:38:05.274Z,101800.00
2022-10-29T07:40:37.371Z,101783.00
2022-10-29T07:43:05.847Z,101800.00
2022-10-29T07:45:34.898Z,101790.00
2022-10-29T07:48:05.444Z,101779.00
2022-10-29T07:50:35.573Z,101790.00
2022-10-29T07:53:04.696Z,101788.00
2022-10-29T07:55:33.056Z,101781.00
2022-10-29T07:58:03.233Z,101795.00
2022-10-29T08:00:33.110Z,101792.00
2022-10-29T08:03:01.393Z,101792.00
2022-10-29T08:05:32.018Z,101775.00
2022-10-29T08:08:01.819Z,101796.00
2022-10-29T08:10:32.157Z,101806.00
2022-10-29T08:13:04.719Z,101799.00
2022-10-29T08:15:34.832Z,101809.00
2022-10-29T08:18:03.691Z,101807.00
2022-10-29T08:20:32.020Z,101796.00
2022-10-29T08:23:02.016Z,101798.00
2022-10-29T08:25:30.739Z,101796.00
2022-10-29T08:28:03.437Z,101794.00
2022-10-29T08:30:32.521Z,101795.00
2022-10-29T08:33:01.584Z,101787.00
2022-10-29T08:35:30.626Z,101791.00
2022-10-29T08:38:00.909Z,101763.00
2022-10-29T08:40:32.741Z,101786.00
2022-10-29T08:43:33.868Z,101775.00
2022-10-29T08:46:02.146Z,101774.00
2022-10-29T08:48:38.685Z,101757.00
2022-10-29T08:51:14.843Z,101769.00
2022-10-29T08:53:54.221Z,101773.00
2022-10-29T08:56:38.804Z,101780.00
2022-10-29T08:59:14.245Z,101764.00
2022-10-29T09:01:43.147Z,101776.00
2022-10-29T09:04:25.011Z,101791.00
2022-10-29T09:07:21.245Z,101778.00
2022-10-29T09:10:02.972Z,101763.00
2022-10-29T09:13:06.053Z,101771.00
2022-10-29T09:16:11.128Z,101772.00
2022-10-29T09:19:16.738Z,101767.00
2022-10-29T09:21:56.957Z,101769.00
2022-10-29T09:24:35.822Z,101761.00
2022-10-29T09:27:15.727Z,101774.00
2022-10-29T09:30:07.312Z,101751.00
2022-10-29T09:32:40.161Z,101771.00
2022-10-29T09:35:15.529Z,101761.00
2022-10-29T09:37:49.940Z,101768.00
2022-10-29T09:40:31.215Z,101763.00
2022-10-29T09:43:06.315Z,101752.00
2022-10-29T09:45:46.703Z,101737.00
2022-10-29T09:48:22.862Z,101752.00
2022-10-29T09:51:01.397Z,101728.00
2022-10-29T09:53:29.690Z,101747.00
2022-10-29T09:55:57.902Z,101751.00
2022-10-29T09:58:29.294Z,101755.00
2022-10-29T10:00:58.111Z,101749.00
2022-10-29T10:03:31.688Z,101740.00
2022-10-29T10:06:03.803Z,101745.00
2022-10-29T10:08:34.883Z,101738.00
2022-10-29T10:11:05.754Z,101727.00
2022-10-29T10:13:38.378Z,101732.00
2022-10-29T10:16:08.020Z,101723.00
2022-10-29T10:21:14.358Z,101727.00
2022-10-29T10:23:46.658Z,101717.00
2022-10-29T10:26:39.329Z,101722.00
2022-10-29T10:29:19.774Z,101721.00
2022-10-29T10:31:49.472Z,101723.00
2022-10-29T10:34:20.719Z,101716.00
2022-10-29T10:36:53.552Z,101721.00
2022-10-29T10:39:27.657Z,101717.00
2022-10-29T10:41:57.884Z,101709.00
2022-10-29T10:45:25.576Z,101698.00
2022-10-29T10:47:59.167Z,101688.00
2022-10-29T10:50:31.328Z,101697.00
2022-10-29T10:53:04.096Z,101687.00
2022-10-29T10:55:34.901Z,101681.00
2022-10-29T10:58:13.546Z,101688.00
2022-10-29T11:00:46.569Z,101671.00
2022-10-29T11:06:03.340Z,101654.00
2022-10-29T11:58:48.414Z,101649.00
2022-10-29T12:01:29.405Z,101630.00
2022-10-29T12:04:21.394Z,101636.00
2022-10-29T12:07:15.922Z,101645.00
2022-10-29T12:10:09.778Z,101632.00
2022-10-29T12:12:46.872Z,101647.00
2022-10-29T12:15:25.915Z,101637.00
2022-10-29T12:18:07.417Z,101622.00
2022-10-29T12:20:45.621Z,101621.00
2022-10-29T12:23:28.286Z,101625.00
2022-10-29T12:26:08.047Z,101622.00
2022-10-29T12:28:48.271Z,101619.00
2022-10-29T12:31:29.525Z,101615.00
2022-10-29T12:34:06.220Z,101621.00
2022-10-29T12:36:46.433Z,101608.00
2022-10-29T12:39:22.510Z,101603.00
2022-10-29T12:41:54.705Z,101594.00
2022-10-29T12:44:29.725Z,101603.00
2022-10-29T12:47:09.208Z,101588.00
2022-10-29T12:49:59.879Z,101604.00
2022-10-29T12:52:36.884Z,101592.00
2022-10-29T12:55:10.786Z,101579.00
2022-10-29T12:57:39.643Z,101574.00
2022-10-29T13:00:48.728Z,101578.00
2022-10-29T13:04:22.475Z,101562.00
2022-10-29T13:07:02.407Z,101560.00
2022-10-29T13:09:33.482Z,101552.00
2022-10-29T13:12:03.740Z,101552.00
2022-10-29T13:14:41.372Z,101537.00
2022-10-29T13:17:33.020Z,101545.00
2022-10-29T13:20:04.414Z,101551.00
2022-10-29T13:22:54.968Z,101549.00
2022-10-29T13:25:48.761Z,101536.00
2022-10-29T13:28:52.871Z,101538.00
2022-10-29T13:31:50.572Z,101534.00
2022-10-29T13:34:56.828Z,101525.00
2022-10-29T13:37:54.646Z,101529.00
2022-10-29T13:41:13.884Z,101532.00
2022-10-29T13:43:44.766Z,101534.00
2022-10-29T13:46:34.624Z,101538.00
2022-10-29T13:49:11.829Z,101531.00
2022-10-29T13:51:50.075Z,101532.00
2022-10-29T13:54:50.627Z,101518.00
2022-10-29T13:57:24.858Z,101493.00
2022-10-29T13:59:58.748Z,101505.00
2022-10-29T14:02:49.486Z,101501.00
2022-10-29T14:05:22.502Z,101505.00
2022-10-29T14:07:56.990Z,101494.00
2022-10-29T14:10:32.389Z,101496.00
2022-10-29T14:13:27.317Z,101428.00
2022-10-29T14:16:04.079Z,101495.00
2022-10-29T14:18:34.748Z,101458.00
2022-10-29T14:21:06.733Z,101497.00
2022-10-29T14:23:35.134Z,101488.00
2022-10-29T14:26:05.253Z,101499.00
2022-10-29T14:28:34.332Z,101501.00
2022-10-29T14:31:08.216Z,101483.00
2022-10-29T14:33:38.692Z,101478.00
2022-10-29T14:36:17.100Z,101505.00
2022-10-29T14:38:51.651Z,101497.00
2022-10-29T14:41:22.794Z,101496.00
2022-10-29T14:43:59.687Z,101490.00
2022-10-29T14:46:30.761Z,101485.00
2022-10-29T14:49:06.845Z,101488.00
2022-10-29T14:51:41.348Z,101491.00
2022-10-29T14:54:18.752Z,101476.00
2022-10-29T14:56:51.756Z,101500.00
2022-10-29T14:59:28.085Z,101494.00
2022-10-29T15:02:11.244Z,101492.00
2022-10-29T15:04:54.205Z,101483.00
2022-10-29T15:07:34.260Z,101476.00
2022-10-29T15:10:23.909Z,101483.00
2022-10-29T15:12:55.287Z,101483.00
2022-10-29T15:15:28.266Z,101476.00
2022-10-29T15:18:02.742Z,101468.00
2022-10-29T15:20:37.293Z,101463.00
2022-10-29T15:23:06.289Z,101470.00
2022-10-29T15:25:37.746Z,101465.00
2022-10-29T15:28:11.411Z,101444.00
2022-10-29T15:30:43.690Z,101463.00
2022-10-29T15:33:19.191Z,101462.00
2022-10-29T15:35:53.654Z,101468.00
2022-10-29T15:39:20.879Z,101456.00
2022-10-29T15:41:51.633Z,101463.00
2022-10-29T15:44:37.426Z,101468.00
2022-10-29T15:47:27.543Z,101459.00
2022-10-29T15:49:55.980Z,101431.00
2022-10-29T15:52:31.607Z,101461.00
2022-10-29T15:55:01.428Z,101471.00
2022-10-29T15:57:31.498Z,101467.00
2022-10-29T16:00:06.548Z,101461.00
2022-10-29T16:02:35.535Z,101458.00
2022-10-29T16:05:04.092Z,101456.00
2022-10-29T16:07:32.765Z,101460.00
2022-10-29T16:10:01.728Z,101437.00
2022-10-29T16:12:30.246Z,101455.00
2022-10-29T16:14:59.870Z,101437.00
2022-10-29T16:17:30.456Z,101451.00
2022-10-29T16:19:58.640Z,101426.00
2022-10-29T16:22:30.361Z,101426.00
2022-10-29T16:25:01.541Z,101415.00
2022-10-29T16:27:29.759Z,101448.00
2022-10-29T16:29:58.099Z,101452.00
2022-10-29T16:32:27.768Z,101453.00
2022-10-29T16:34:55.992Z,101419.00
2022-10-29T16:37:24.291Z,101461.00
2022-10-29T16:39:52.545Z,101405.00
2022-10-29T16:42:31.261Z,101418.00
2022-10-29T16:44:59.513Z,101402.00
2022-10-29T16:47:29.430Z,101451.00
2022-10-29T16:49:57.937Z,101450.00
2022-10-29T16:52:29.486Z,101447.00
2022-10-29T16:54:58.629Z,101444.00
2022-10-29T16:57:27.047Z,101451.00
2022-10-29T16:59:55.387Z,101398.00
2022-10-29T17:02:23.670Z,101445.00
2022-10-29T17:04:53.274Z,101443.00
2022-10-29T17:07:21.481Z,101444.00
2022-10-29T17:09:49.921Z,101441.00
2022-10-29T17:12:18.141Z,101441.00
2022-10-29T17:14:46.368Z,101428.00
2022-10-29T17:17:14.583Z,101433.00
2022-10-29T17:19:42.775Z,101428.00
2022-10-29T17:22:15.998Z,101438.00
2022-10-29T17:24:45.007Z,101432.00
2022-10-29T17:27:14.128Z,101435.00
2022-10-29T17:29:42.447Z,101434.00
2022-10-29T17:32:10.859Z,101433.00
2022-10-29T17:34:39.314Z,101432.00
2022-10-29T17:37:07.709Z,101427.00
2022-10-29T17:39:37.407Z,101420.00
2022-10-29T17:42:06.103Z,101436.00
2022-10-29T17:44:36.318Z,101434.00
2022-10-29T17:47:04.584Z,101431.00
2022-10-29T17:49:32.922Z,101364.00
2022-10-29T17:52:01.419Z,101423.00
2022-10-29T17:54:29.763Z,101412.00
2022-10-29T17:56:59.350Z,101428.00
2022-10-29T17:59:27.608Z,101428.00
2022-10-29T18:01:56.391Z,101437.00
2022-10-29T18:04:24.992Z,101432.00
2022-10-29T18:06:53.268Z,101422.00
2022-10-29T18:09:21.616Z,101423.00
2022-10-29T18:11:50.946Z,101436.00
2022-10-29T18:14:20.657Z,101429.00
2022-10-29T18:16:49.044Z,101412.00
2022-10-29T18:19:17.347Z,101404.00
2022-10-29T18:21:45.797Z,101407.00
2022-10-29T18:24:13.986Z,101403.00
2022-10-29T18:26:42.501Z,101411.00
2022-10-29T18:29:13.328Z,101402.00
2022-10-29T18:31:45.743Z,101410.00
2022-10-29T18:34:15.656Z,101416.00
2022-10-29T18:36:44.164Z,101393.00
2022-10-29T18:39:12.589Z,101385.00
2022-10-29T18:41:40.973Z,101394.00
2022-10-29T18:44:09.309Z,101402.00
2022-10-29T18:46:37.569Z,101400.00
2022-10-29T18:49:07.118Z,101386.00
2022-10-29T18:51:35.276Z,101405.00
2022-10-29T18:54:03.571Z,101360.00
2022-10-29T18:56:32.306Z,101396.00
2022-10-29T18:59:01.316Z,101390.00
2022-10-29T19:01:32.385Z,101388.00
2022-10-29T19:04:02.536Z,101369.00
2022-10-29T19:06:35.422Z,101379.00
2022-10-29T19:09:07.588Z,101379.00
2022-10-29T19:11:36.709Z,101381.00
2022-10-29T19:14:07.083Z,101372.00
2022-10-29T19:16:35.726Z,101380.00
2022-10-29T19:19:07.762Z,101378.00
2022-10-29T19:21:39.815Z,101361.00
2022-10-29T19:24:11.515Z,101368.00
2022-10-29T19:26:39.794Z,101366.00
2022-10-29T19:29:08.805Z,101363.00
2022-10-29T19:31:37.703Z,101369.00
2022-10-29T19:34:09.031Z,101381.00
2022-10-29T19:36:40.174Z,101377.00
2022-10-29T19:39:09.126Z,101397.00
2022-10-29T19:41:38.190Z,101394.00
2022-10-29T19:44:08.687Z,101394.00
2022-10-29T19:46:36.922Z,101405.00
2022-10-29T19:49:05.149Z,101380.00
2022-10-29T19:51:33.353Z,101394.00
2022-10-29T19:54:04.316Z,101390.00
2022-10-29T19:56:32.707Z,101400.00
2022-10-29T19:59:04.791Z,101397.00
2022-10-29T20:01:34.804Z,101390.00
2022-10-29T20:04:03.249Z,101394.00
2022-10-29T20:06:32.072Z,101371.00
2022-10-29T20:09:00.382Z,101378.00
2022-10-29T20:11:30.102Z,101383.00
2022-10-29T20:13:58.417Z,101389.00
2022-10-29T20:16:26.647Z,101380.00
2022-10-29T20:18:55.036Z,101380.00
2022-10-29T20:21:23.347Z,101385.00
2022-10-29T20:23:51.616Z,101389.00
2022-10-29T20:26:19.825Z,101375.00
2022-10-29T20:28:49.415Z,101370.00
2022-10-29T20:31:31.061Z,101386.00
2022-10-29T20:34:03.288Z,101391.00
2022-10-29T20:36:33.518Z,101400.00
2022-10-29T20:39:02.084Z,101405.00
2022-10-29T20:41:30.859Z,101393.00
2022-10-29T20:44:03.817Z,101399.00
2022-10-29T20:46:32.245Z,101402.00
2022-10-29T20:49:05.812Z,101401.00
2022-10-29T20:51:38.578Z,101404.00
2022-10-29T20:54:12.953Z,101394.00
2022-10-29T20:56:41.331Z,101408.00
2022-10-29T20:59:13.418Z,101387.00
2022-10-29T21:01:42.001Z,101398.00
2022-10-29T21:04:10.277Z,101385.00
2022-10-29T21:06:38.464Z,101406.00
2022-10-29T21:09:07.189Z,101398.00
2022-10-29T21:11:35.566Z,101396.00
2022-10-29T21:14:06.131Z,101392.00
2022-10-29T21:16:36.079Z,101395.00
2022-10-29T21:19:07.407Z,101390.00
2022-10-29T21:21:35.740Z,101397.00
2022-10-29T21:24:04.445Z,101415.00
2022-10-29T21:26:32.739Z,101412.00
2022-10-29T21:29:01.035Z,101410.00
2022-10-29T21:31:29.338Z,101408.00
2022-10-29T21:33:58.967Z,101381.00
2022-10-29T21:36:27.293Z,101402.00
2022-10-29T21:38:55.706Z,101402.00
2022-10-29T21:41:24.038Z,101369.00
2022-10-29T21:43:52.395Z,101397.00
2022-10-29T21:46:20.664Z,101380.00
2022-10-29T21:48:49.044Z,101356.00
2022-10-29T21:51:24.037Z,101350.00
2022-10-29T21:53:52.311Z,101397.00
2022-10-29T21:56:20.668Z,101387.00
2022-10-29T21:58:51.307Z,101356.00
2022-10-29T22:01:20.175Z,101403.00
2022-10-29T22:03:49.719Z,101388.00
2022-10-29T22:06:21.858Z,101413.00
2022-10-29T22:08:55.186Z,101384.00
2022-10-29T22:11:24.915Z,101390.00
2022-10-29T22:13:54.039Z,101399.00
2022-10-29T22:16:25.782Z,101366.00
2022-10-29T22:18:55.436Z,101383.00
2022-10-29T22:21:27.113Z,101395.00
2022-10-29T22:23:59.147Z,101361.00
2022-10-29T22:26:30.474Z,101401.00
2022-10-29T22:28:58.986Z,101365.00
2022-10-29T22:31:27.447Z,101365.00
2022-10-29T22:33:56.150Z,101374.00
2022-10-29T22:36:29.639Z,101390.00
2022-10-29T22:39:00.332Z,101395.00
2022-10-29T22:41:29.859Z,101385.00
2022-10-29T22:44:01.727Z,101375.00
2022-10-29T22:46:31.684Z,101402.00
2022-10-29T22:49:02.055Z,101386.00
2022-10-29T22:51:34.764Z,101396.00
2022-10-29T22:54:03.950Z,101399.00
2022-10-29T22:56:35.604Z,101403.00
2022-10-29T22:59:05.147Z,101367.00
2022-10-29T23:01:38.959Z,101396.00
2022-10-29T23:04:10.774Z,101387.00
2022-10-29T23:06:40.519Z,101344.00
2022-10-29T23:09:09.327Z,101394.00
2022-10-29T23:11:39.414Z,101386.00
2022-10-29T23:14:08.178Z,101375.00
2022-10-29T23:16:37.927Z,101416.00
2022-10-29T23:19:08.203Z,101388.00
2022-10-29T23:21:37.390Z,101412.00
2022-10-29T23:24:08.163Z,101395.00
2022-10-29T23:26:36.688Z,101416.00
2022-10-29T23:29:05.807Z,101407.00
2022-10-29T23:31:34.067Z,101392.00
2022-10-29T23:34:02.565Z,101403.00
2022-10-29T23:36:31.164Z,101404.00
2022-10-29T23:39:01.596Z,101412.00
2022-10-29T23:41:33.007Z,101437.00
2022-10-29T23:44:01.514Z,101392.00
2022-10-29T23:46:29.817Z,101419.00
2022-10-29T23:48:58.171Z,101409.00
2022-10-29T23:51:26.523Z,101417.00
2022-10-29T23:53:57.532Z,101422.00
2022-10-29T23:56:26.421Z,101410.00
2022-10-29T23:58:56.412Z,101412.00
